Hauptseite
METAR-TAF:

METAR-TAF

Flughäfen :

Ponta Porã, Mato Grosso do Sul, Brasilien

Breite: 22-33S, Länge: 055-42W, Höhe: 657 m

Beobachtung

Neuester Wetterbericht von vor 3 Stunden und 11 Minuten, um 22:00 UTC
Windstille
Temperatur 21°C
Luftfeuchtigkeit 88%
Luftdruck 1017 hPa
Sichtweite 10 km oder mehr
Durchbrochene Bewölkung in der Höhe von 2000 ft

METAR: SBPP 192200Z 00000KT 9999 BKN020 21/19 Q1017

Zeit: 21:11 (01:11 UTC)

Prognose

Neuester Wetterbericht von vor 9 Stunden und 41 Minuten, um 15:30 UTC
Gültige Prognose vom 19 um 18 UTC bis 20 um 18 UTC
Wind 10 kt aus Nord/Nordost
Sichtweite 10 km oder mehr
keine Wolken unter 1500 m und keine Kumulonimbus oder Gewitterwolken
Übergehend zu
vom 20 um 12 UTC bis 20 um 14 UTC
Wind 7 kt aus Nord
Sichtweite 10 km oder mehr
Leicht bewölkt in der Höhe von 2000 ft

TAF: SBPP 191530Z 1918/2018 03010KT CAVOK TX25/1918Z TN17/2008Z BECMG 2012/2014 01007KT 9999 FEW020 RMK PEB

Wetterbeobachtungen und Prognosen von mehr als 4000 Flughäfen (METAR und TAF Bericht).

Die verfügbaren Stationen werden durch gelbe und rote Markierungen auf der Karte dargestellt.

Führen Sie die Maus auf sie, um den Namen der Station zu sehen.

Darauf klicken, um die Beobachtung von Wetterbeobachtungen und Prognosen zu sehen.

Um die Karte zu ändern : klicken Sie auf den grünen Tasten mit einem schwarzen Kreuz Zum Vergrößern, auf den grünen Button mit einem Gedankenstrich zu verkleinern, oder auf die grünen Pfeile für benachbarte Karten.


METAR-TAF: